sensor_id;sensor_type;location;lat;lon;timestamp;P1;durP1;ratioP1;P2;durP2;ratioP2
2912;SDS011;1466;48.778;9.166;2022-09-03T00:01:47;17.27;;;6.67;;
2912;SDS011;1466;48.778;9.166;2022-09-03T00:04:30;16.67;;;6.60;;
2912;SDS011;1466;48.778;9.166;2022-09-03T00:07:16;21.52;;;8.15;;
2912;SDS011;1466;48.778;9.166;2022-09-03T00:09:52;12.70;;;5.90;;
2912;SDS011;1466;48.778;9.166;2022-09-03T00:12:24;18.77;;;6.83;;
2912;SDS011;1466;48.778;9.166;2022-09-03T00:14:54;18.80;;;6.87;;
2912;SDS011;1466;48.778;9.166;2022-09-03T00:20:39;16.10;;;6.60;;
2912;SDS011;1466;48.778;9.166;2022-09-03T00:23:13;20.13;;;6.90;;
2912;SDS011;1466;48.778;9.166;2022-09-03T00:25:45;24.63;;;7.20;;
2912;SDS011;1466;48.778;9.166;2022-09-03T00:28:21;18.00;;;6.37;;
2912;SDS011;1466;48.778;9.166;2022-09-03T00:33:45;21.00;;;7.10;;
2912;SDS011;1466;48.778;9.166;2022-09-03T00:36:16;15.80;;;6.57;;
2912;SDS011;1466;48.778;9.166;2022-09-03T00:38:59;16.17;;;6.73;;
2912;SDS011;1466;48.778;9.166;2022-09-03T00:41:29;19.10;;;7.50;;
2912;SDS011;1466;48.778;9.166;2022-09-03T00:46:48;15.27;;;6.73;;
2912;SDS011;1466;48.778;9.166;2022-09-03T00:52:09;19.70;;;7.80;;
2912;SDS011;1466;48.778;9.166;2022-09-03T01:00:22;24.90;;;8.83;;
2912;SDS011;1466;48.778;9.166;2022-09-03T01:03:10;18.33;;;7.30;;
2912;SDS011;1466;48.778;9.166;2022-09-03T01:05:50;16.23;;;7.57;;
2912;SDS011;1466;48.778;9.166;2022-09-03T01:08:52;22.03;;;7.60;;
2912;SDS011;1466;48.778;9.166;2022-09-03T01:11:42;13.60;;;6.27;;
2912;SDS011;1466;48.778;9.166;2022-09-03T01:14:48;17.50;;;7.27;;
2912;SDS011;1466;48.778;9.166;2022-09-03T01:25:52;12.93;;;6.80;;
2912;SDS011;1466;48.778;9.166;2022-09-03T01:28:48;12.10;;;6.47;;
2912;SDS011;1466;48.778;9.166;2022-09-03T01:32:00;16.27;;;7.27;;
2912;SDS011;1466;48.778;9.166;2022-09-03T01:42:31;12.87;;;6.30;;
2912;SDS011;1466;48.778;9.166;2022-09-03T01:48:02;16.93;;;6.97;;
2912;SDS011;1466;48.778;9.166;2022-09-03T01:50:41;11.40;;;6.32;;
2912;SDS011;1466;48.778;9.166;2022-09-03T01:59:33;15.33;;;6.77;;
2912;SDS011;1466;48.778;9.166;2022-09-03T02:02:07;14.87;;;6.73;;
2912;SDS011;1466;48.778;9.166;2022-09-03T02:04:41;15.17;;;6.10;;
2912;SDS011;1466;48.778;9.166;2022-09-03T02:07:07;26.47;;;8.60;;
2912;SDS011;1466;48.778;9.166;2022-09-03T02:09:33;19.43;;;6.27;;
2912;SDS011;1466;48.778;9.166;2022-09-03T02:12:09;17.67;;;6.03;;
2912;SDS011;1466;48.778;9.166;2022-09-03T02:14:38;14.13;;;6.20;;
2912;SDS011;1466;48.778;9.166;2022-09-03T02:17:04;26.50;;;8.03;;
2912;SDS011;1466;48.778;9.166;2022-09-03T02:19:31;11.70;;;5.77;;
2912;SDS011;1466;48.778;9.166;2022-09-03T02:21:58;12.63;;;6.03;;
2912;SDS011;1466;48.778;9.166;2022-09-03T02:24:24;16.93;;;6.47;;
2912;SDS011;1466;48.778;9.166;2022-09-03T02:26:52;16.50;;;6.40;;
2912;SDS011;1466;48.778;9.166;2022-09-03T02:29:17;16.10;;;6.07;;
2912;SDS011;1466;48.778;9.166;2022-09-03T02:31:44;21.80;;;6.73;;
2912;SDS011;1466;48.778;9.166;2022-09-03T02:34:10;13.83;;;6.07;;
2912;SDS011;1466;48.778;9.166;2022-09-03T02:36:36;13.43;;;5.90;;
2912;SDS011;1466;48.778;9.166;2022-09-03T02:39:05;7.73;;;5.07;;
2912;SDS011;1466;48.778;9.166;2022-09-03T02:41:31;23.50;;;7.10;;
2912;SDS011;1466;48.778;9.166;2022-09-03T02:46:34;13.83;;;6.03;;
2912;SDS011;1466;48.778;9.166;2022-09-03T02:49:04;16.80;;;6.47;;
2912;SDS011;1466;48.778;9.166;2022-09-03T02:51:37;22.60;;;8.00;;
2912;SDS011;1466;48.778;9.166;2022-09-03T02:54:05;15.83;;;6.27;;
2912;SDS011;1466;48.778;9.166;2022-09-03T02:56:32;14.57;;;6.70;;
2912;SDS011;1466;48.778;9.166;2022-09-03T02:58:58;14.90;;;6.20;;
2912;SDS011;1466;48.778;9.166;2022-09-03T03:01:24;15.97;;;6.57;;
2912;SDS011;1466;48.778;9.166;2022-09-03T03:03:51;15.50;;;6.20;;
2912;SDS011;1466;48.778;9.166;2022-09-03T03:06:17;23.60;;;7.40;;
2912;SDS011;1466;48.778;9.166;2022-09-03T03:08:47;20.60;;;6.90;;
2912;SDS011;1466;48.778;9.166;2022-09-03T03:11:13;16.43;;;6.20;;
2912;SDS011;1466;48.778;9.166;2022-09-03T03:13:42;17.83;;;6.53;;
2912;SDS011;1466;48.778;9.166;2022-09-03T03:16:11;14.67;;;6.10;;
2912;SDS011;1466;48.778;9.166;2022-09-03T03:18:37;27.93;;;8.33;;
2912;SDS011;1466;48.778;9.166;2022-09-03T03:21:08;13.40;;;5.80;;
2912;SDS011;1466;48.778;9.166;2022-09-03T03:23:35;12.17;;;5.93;;
2912;SDS011;1466;48.778;9.166;2022-09-03T03:26:03;16.85;;;6.60;;
2912;SDS011;1466;48.778;9.166;2022-09-03T03:28:33;13.30;;;6.17;;
2912;SDS011;1466;48.778;9.166;2022-09-03T03:33:35;14.37;;;6.87;;
2912;SDS011;1466;48.778;9.166;2022-09-03T03:36:14;13.07;;;6.20;;
2912;SDS011;1466;48.778;9.166;2022-09-03T03:38:41;10.20;;;5.47;;
2912;SDS011;1466;48.778;9.166;2022-09-03T03:43:41;17.17;;;6.37;;
2912;SDS011;1466;48.778;9.166;2022-09-03T03:46:07;12.17;;;6.03;;
2912;SDS011;1466;48.778;9.166;2022-09-03T03:48:32;16.10;;;7.63;;
2912;SDS011;1466;48.778;9.166;2022-09-03T03:51:02;15.97;;;6.00;;
2912;SDS011;1466;48.778;9.166;2022-09-03T03:53:30;12.83;;;6.00;;
2912;SDS011;1466;48.778;9.166;2022-09-03T03:55:57;11.03;;;5.30;;
2912;SDS011;1466;48.778;9.166;2022-09-03T03:58:24;18.53;;;6.67;;
2912;SDS011;1466;48.778;9.166;2022-09-03T04:00:50;24.23;;;7.27;;
2912;SDS011;1466;48.778;9.166;2022-09-03T04:03:16;14.73;;;6.27;;
2912;SDS011;1466;48.778;9.166;2022-09-03T04:05:42;17.33;;;6.80;;
2912;SDS011;1466;48.778;9.166;2022-09-03T04:08:08;14.30;;;5.80;;
2912;SDS011;1466;48.778;9.166;2022-09-03T04:10:34;12.73;;;5.87;;
2912;SDS011;1466;48.778;9.166;2022-09-03T04:13:00;14.30;;;6.27;;
2912;SDS011;1466;48.778;9.166;2022-09-03T04:15:26;20.33;;;6.80;;
2912;SDS011;1466;48.778;9.166;2022-09-03T04:17:54;24.30;;;7.40;;
2912;SDS011;1466;48.778;9.166;2022-09-03T04:20:20;22.30;;;7.40;;
2912;SDS011;1466;48.778;9.166;2022-09-03T04:22:46;17.87;;;6.70;;
2912;SDS011;1466;48.778;9.166;2022-09-03T04:25:11;13.57;;;5.93;;
2912;SDS011;1466;48.778;9.166;2022-09-03T04:27:37;16.67;;;6.90;;
2912;SDS011;1466;48.778;9.166;2022-09-03T04:30:03;11.23;;;5.70;;
2912;SDS011;1466;48.778;9.166;2022-09-03T04:32:29;19.93;;;7.00;;
2912;SDS011;1466;48.778;9.166;2022-09-03T04:35:13;23.27;;;6.78;;
2912;SDS011;1466;48.778;9.166;2022-09-03T04:37:40;22.30;;;7.07;;
2912;SDS011;1466;48.778;9.166;2022-09-03T04:40:05;23.30;;;6.57;;
2912;SDS011;1466;48.778;9.166;2022-09-03T04:42:31;9.32;;;4.95;;
2912;SDS011;1466;48.778;9.166;2022-09-03T04:44:57;24.70;;;7.83;;
2912;SDS011;1466;48.778;9.166;2022-09-03T04:47:23;19.50;;;6.67;;
2912;SDS011;1466;48.778;9.166;2022-09-03T04:49:49;22.93;;;7.80;;
2912;SDS011;1466;48.778;9.166;2022-09-03T04:52:14;14.93;;;6.10;;
2912;SDS011;1466;48.778;9.166;2022-09-03T04:54:40;17.87;;;6.70;;
2912;SDS011;1466;48.778;9.166;2022-09-03T04:57:05;16.23;;;6.33;;
2912;SDS011;1466;48.778;9.166;2022-09-03T04:59:31;14.50;;;6.57;;
2912;SDS011;1466;48.778;9.166;2022-09-03T05:01:56;10.37;;;5.30;;
2912;SDS011;1466;48.778;9.166;2022-09-03T05:04:22;11.43;;;5.60;;
2912;SDS011;1466;48.778;9.166;2022-09-03T05:06:48;17.77;;;6.73;;
2912;SDS011;1466;48.778;9.166;2022-09-03T05:09:13;21.27;;;6.90;;
2912;SDS011;1466;48.778;9.166;2022-09-03T05:11:39;24.50;;;7.30;;
2912;SDS011;1466;48.778;9.166;2022-09-03T05:14:04;25.10;;;7.70;;
2912;SDS011;1466;48.778;9.166;2022-09-03T05:16:30;25.40;;;7.17;;
2912;SDS011;1466;48.778;9.166;2022-09-03T05:18:59;16.15;;;6.60;;
2912;SDS011;1466;48.778;9.166;2022-09-03T05:21:25;32.60;;;8.13;;
2912;SDS011;1466;48.778;9.166;2022-09-03T05:23:51;20.87;;;7.30;;
2912;SDS011;1466;48.778;9.166;2022-09-03T05:26:18;22.57;;;7.50;;
2912;SDS011;1466;48.778;9.166;2022-09-03T05:28:45;15.65;;;6.75;;
2912;SDS011;1466;48.778;9.166;2022-09-03T05:31:12;16.60;;;7.07;;
2912;SDS011;1466;48.778;9.166;2022-09-03T05:33:41;20.83;;;6.93;;
2912;SDS011;1466;48.778;9.166;2022-09-03T05:36:09;13.20;;;6.43;;
2912;SDS011;1466;48.778;9.166;2022-09-03T05:38:36;17.23;;;7.27;;
2912;SDS011;1466;48.778;9.166;2022-09-03T05:41:03;16.73;;;6.60;;
2912;SDS011;1466;48.778;9.166;2022-09-03T05:43:31;10.82;;;5.90;;
2912;SDS011;1466;48.778;9.166;2022-09-03T05:45:57;19.30;;;7.80;;
2912;SDS011;1466;48.778;9.166;2022-09-03T05:48:24;15.97;;;6.50;;
2912;SDS011;1466;48.778;9.166;2022-09-03T05:50:57;17.50;;;6.28;;
2912;SDS011;1466;48.778;9.166;2022-09-03T05:53:24;11.20;;;6.13;;
2912;SDS011;1466;48.778;9.166;2022-09-03T05:55:54;20.63;;;8.10;;
2912;SDS011;1466;48.778;9.166;2022-09-03T05:58:24;19.90;;;8.30;;
2912;SDS011;1466;48.778;9.166;2022-09-03T06:00:51;9.97;;;6.60;;
2912;SDS011;1466;48.778;9.166;2022-09-03T06:03:16;22.23;;;8.23;;
2912;SDS011;1466;48.778;9.166;2022-09-03T06:05:49;19.10;;;7.23;;
2912;SDS011;1466;48.778;9.166;2022-09-03T06:08:15;11.63;;;7.10;;
2912;SDS011;1466;48.778;9.166;2022-09-03T06:10:41;20.77;;;7.73;;
2912;SDS011;1466;48.778;9.166;2022-09-03T06:13:06;59.13;;;13.40;;
2912;SDS011;1466;48.778;9.166;2022-09-03T06:15:32;11.67;;;7.27;;
2912;SDS011;1466;48.778;9.166;2022-09-03T06:17:57;12.27;;;6.73;;
2912;SDS011;1466;48.778;9.166;2022-09-03T06:20:23;15.20;;;7.63;;
2912;SDS011;1466;48.778;9.166;2022-09-03T06:22:51;19.50;;;7.85;;
2912;SDS011;1466;48.778;9.166;2022-09-03T06:25:17;17.13;;;8.30;;
2912;SDS011;1466;48.778;9.166;2022-09-03T06:27:43;13.70;;;7.63;;
2912;SDS011;1466;48.778;9.166;2022-09-03T06:30:10;26.07;;;8.87;;
2912;SDS011;1466;48.778;9.166;2022-09-03T06:32:46;15.43;;;7.73;;
2912;SDS011;1466;48.778;9.166;2022-09-03T06:35:14;16.53;;;7.47;;
2912;SDS011;1466;48.778;9.166;2022-09-03T06:37:40;14.83;;;7.67;;
2912;SDS011;1466;48.778;9.166;2022-09-03T06:40:07;21.03;;;8.10;;
2912;SDS011;1466;48.778;9.166;2022-09-03T06:42:53;18.83;;;7.83;;
2912;SDS011;1466;48.778;9.166;2022-09-03T06:45:25;18.57;;;7.37;;
2912;SDS011;1466;48.778;9.166;2022-09-03T06:47:53;10.70;;;7.10;;
2912;SDS011;1466;48.778;9.166;2022-09-03T06:50:18;13.07;;;7.27;;
2912;SDS011;1466;48.778;9.166;2022-09-03T06:52:49;9.87;;;6.73;;
2912;SDS011;1466;48.778;9.166;2022-09-03T06:55:17;10.70;;;7.63;;
2912;SDS011;1466;48.778;9.166;2022-09-03T06:57:42;14.90;;;8.00;;
2912;SDS011;1466;48.778;9.166;2022-09-03T07:00:08;14.67;;;7.83;;
2912;SDS011;1466;48.778;9.166;2022-09-03T07:02:34;13.10;;;7.67;;
2912;SDS011;1466;48.778;9.166;2022-09-03T07:05:00;14.43;;;8.07;;
2912;SDS011;1466;48.778;9.166;2022-09-03T07:07:26;18.43;;;8.27;;
2912;SDS011;1466;48.778;9.166;2022-09-03T07:09:51;15.27;;;7.67;;
2912;SDS011;1466;48.778;9.166;2022-09-03T07:12:17;18.47;;;8.73;;
2912;SDS011;1466;48.778;9.166;2022-09-03T07:14:43;16.07;;;8.40;;
2912;SDS011;1466;48.778;9.166;2022-09-03T07:17:10;17.40;;;8.20;;
2912;SDS011;1466;48.778;9.166;2022-09-03T07:19:36;14.57;;;8.73;;
2912;SDS011;1466;48.778;9.166;2022-09-03T07:22:01;9.13;;;6.70;;
2912;SDS011;1466;48.778;9.166;2022-09-03T07:24:27;22.90;;;9.30;;
2912;SDS011;1466;48.778;9.166;2022-09-03T07:26:53;19.93;;;8.90;;
2912;SDS011;1466;48.778;9.166;2022-09-03T07:29:22;17.67;;;8.20;;
2912;SDS011;1466;48.778;9.166;2022-09-03T07:31:48;13.83;;;8.07;;
2912;SDS011;1466;48.778;9.166;2022-09-03T07:34:17;38.07;;;11.13;;
2912;SDS011;1466;48.778;9.166;2022-09-03T07:36:45;14.83;;;8.60;;
2912;SDS011;1466;48.778;9.166;2022-09-03T07:39:12;14.83;;;7.50;;
2912;SDS011;1466;48.778;9.166;2022-09-03T07:41:39;16.93;;;8.30;;
2912;SDS011;1466;48.778;9.166;2022-09-03T07:44:08;18.03;;;8.63;;
2912;SDS011;1466;48.778;9.166;2022-09-03T07:46:35;18.77;;;9.03;;
2912;SDS011;1466;48.778;9.166;2022-09-03T07:49:02;15.53;;;8.53;;
2912;SDS011;1466;48.778;9.166;2022-09-03T07:51:30;20.73;;;9.23;;
2912;SDS011;1466;48.778;9.166;2022-09-03T07:54:01;15.30;;;8.57;;
2912;SDS011;1466;48.778;9.166;2022-09-03T07:56:31;19.03;;;8.93;;
2912;SDS011;1466;48.778;9.166;2022-09-03T07:58:57;20.33;;;9.07;;
2912;SDS011;1466;48.778;9.166;2022-09-03T08:01:24;19.67;;;9.00;;
2912;SDS011;1466;48.778;9.166;2022-09-03T08:03:52;24.43;;;10.40;;
2912;SDS011;1466;48.778;9.166;2022-09-03T08:06:20;12.90;;;8.07;;
2912;SDS011;1466;48.778;9.166;2022-09-03T08:08:48;16.60;;;8.70;;
2912;SDS011;1466;48.778;9.166;2022-09-03T08:11:18;18.43;;;9.33;;
2912;SDS011;1466;48.778;9.166;2022-09-03T08:13:46;21.90;;;9.70;;
2912;SDS011;1466;48.778;9.166;2022-09-03T08:16:26;15.13;;;8.80;;
2912;SDS011;1466;48.778;9.166;2022-09-03T08:18:56;15.93;;;8.87;;
2912;SDS011;1466;48.778;9.166;2022-09-03T08:21:22;20.30;;;9.93;;
2912;SDS011;1466;48.778;9.166;2022-09-03T08:23:49;25.80;;;9.83;;
2912;SDS011;1466;48.778;9.166;2022-09-03T08:26:18;15.17;;;8.40;;
2912;SDS011;1466;48.778;9.166;2022-09-03T08:28:44;12.70;;;8.20;;
2912;SDS011;1466;48.778;9.166;2022-09-03T08:31:11;15.40;;;9.57;;
2912;SDS011;1466;48.778;9.166;2022-09-03T08:33:42;14.20;;;8.37;;
2912;SDS011;1466;48.778;9.166;2022-09-03T08:36:11;13.53;;;8.03;;
2912;SDS011;1466;48.778;9.166;2022-09-03T08:38:39;16.53;;;9.00;;
2912;SDS011;1466;48.778;9.166;2022-09-03T08:43:54;12.07;;;7.87;;
2912;SDS011;1466;48.778;9.166;2022-09-03T08:46:47;19.00;;;8.93;;
2912;SDS011;1466;48.778;9.166;2022-09-03T08:49:17;24.03;;;9.73;;
2912;SDS011;1466;48.778;9.166;2022-09-03T08:51:48;15.60;;;8.77;;
2912;SDS011;1466;48.778;9.166;2022-09-03T08:54:16;19.57;;;8.90;;
2912;SDS011;1466;48.778;9.166;2022-09-03T08:56:44;19.57;;;8.87;;
2912;SDS011;1466;48.778;9.166;2022-09-03T08:59:11;14.60;;;8.23;;
2912;SDS011;1466;48.778;9.166;2022-09-03T09:07:03;20.73;;;8.10;;
2912;SDS011;1466;48.778;9.166;2022-09-03T09:20:26;16.33;;;8.10;;
2912;SDS011;1466;48.778;9.166;2022-09-03T09:23:13;19.60;;;8.80;;
2912;SDS011;1466;48.778;9.166;2022-09-03T09:25:48;15.87;;;8.50;;
2912;SDS011;1466;48.778;9.166;2022-09-03T09:28:19;20.80;;;10.50;;
2912;SDS011;1466;48.778;9.166;2022-09-03T09:30:47;13.67;;;9.50;;
2912;SDS011;1466;48.778;9.166;2022-09-03T09:33:14;17.43;;;9.80;;
2912;SDS011;1466;48.778;9.166;2022-09-03T09:35:41;19.43;;;9.53;;
2912;SDS011;1466;48.778;9.166;2022-09-03T09:38:08;19.17;;;9.70;;
2912;SDS011;1466;48.778;9.166;2022-09-03T09:40:36;24.03;;;11.00;;
2912;SDS011;1466;48.778;9.166;2022-09-03T09:43:04;17.70;;;9.67;;
2912;SDS011;1466;48.778;9.166;2022-09-03T09:45:40;15.13;;;9.40;;
2912;SDS011;1466;48.778;9.166;2022-09-03T09:48:14;11.90;;;9.83;;
2912;SDS011;1466;48.778;9.166;2022-09-03T09:50:41;34.37;;;12.13;;
2912;SDS011;1466;48.778;9.166;2022-09-03T09:53:08;14.20;;;9.97;;
2912;SDS011;1466;48.778;9.166;2022-09-03T09:55:54;17.00;;;9.37;;
2912;SDS011;1466;48.778;9.166;2022-09-03T09:58:27;18.60;;;9.83;;
2912;SDS011;1466;48.778;9.166;2022-09-03T10:01:10;15.67;;;9.40;;
2912;SDS011;1466;48.778;9.166;2022-09-03T10:06:37;18.77;;;9.87;;
2912;SDS011;1466;48.778;9.166;2022-09-03T10:09:20;15.67;;;10.07;;
2912;SDS011;1466;48.778;9.166;2022-09-03T10:11:48;14.53;;;9.33;;
2912;SDS011;1466;48.778;9.166;2022-09-03T10:14:22;13.80;;;9.37;;
2912;SDS011;1466;48.778;9.166;2022-09-03T10:17:01;20.13;;;10.77;;
2912;SDS011;1466;48.778;9.166;2022-09-03T10:22:40;10.37;;;8.10;;
2912;SDS011;1466;48.778;9.166;2022-09-03T10:25:12;15.30;;;9.47;;
2912;SDS011;1466;48.778;9.166;2022-09-03T10:27:40;18.80;;;8.80;;
2912;SDS011;1466;48.778;9.166;2022-09-03T10:30:09;14.47;;;9.77;;
2912;SDS011;1466;48.778;9.166;2022-09-03T10:35:29;14.70;;;10.10;;
2912;SDS011;1466;48.778;9.166;2022-09-03T10:38:09;17.80;;;10.57;;
2912;SDS011;1466;48.778;9.166;2022-09-03T10:46:25;19.27;;;11.00;;
2912;SDS011;1466;48.778;9.166;2022-09-03T10:49:07;15.40;;;9.50;;
2912;SDS011;1466;48.778;9.166;2022-09-03T10:51:41;21.10;;;11.30;;
2912;SDS011;1466;48.778;9.166;2022-09-03T11:08:01;11.43;;;8.27;;
2912;SDS011;1466;48.778;9.166;2022-09-03T11:10:31;15.10;;;9.70;;
2912;SDS011;1466;48.778;9.166;2022-09-03T11:15:35;11.57;;;8.40;;
2912;SDS011;1466;48.778;9.166;2022-09-03T11:18:18;18.37;;;9.73;;
2912;SDS011;1466;48.778;9.166;2022-09-03T11:20:53;19.90;;;10.23;;
2912;SDS011;1466;48.778;9.166;2022-09-03T11:23:20;18.10;;;9.27;;
2912;SDS011;1466;48.778;9.166;2022-09-03T11:25:50;24.57;;;10.63;;
2912;SDS011;1466;48.778;9.166;2022-09-03T11:33:58;16.70;;;10.10;;
2912;SDS011;1466;48.778;9.166;2022-09-03T11:36:37;28.27;;;11.17;;
2912;SDS011;1466;48.778;9.166;2022-09-03T11:41:42;19.27;;;10.00;;
2912;SDS011;1466;48.778;9.166;2022-09-03T11:44:21;17.87;;;10.40;;
2912;SDS011;1466;48.778;9.166;2022-09-03T11:46:54;13.87;;;9.80;;
2912;SDS011;1466;48.778;9.166;2022-09-03T11:49:26;17.20;;;9.93;;
2912;SDS011;1466;48.778;9.166;2022-09-03T11:51:58;21.63;;;9.63;;
2912;SDS011;1466;48.778;9.166;2022-09-03T11:54:25;12.80;;;9.27;;
2912;SDS011;1466;48.778;9.166;2022-09-03T11:59:52;10.37;;;8.40;;
2912;SDS011;1466;48.778;9.166;2022-09-03T12:15:35;19.90;;;10.07;;
2912;SDS011;1466;48.778;9.166;2022-09-03T12:18:28;20.03;;;10.07;;
2912;SDS011;1466;48.778;9.166;2022-09-03T12:23:46;16.73;;;9.93;;
2912;SDS011;1466;48.778;9.166;2022-09-03T12:26:14;14.53;;;9.27;;
2912;SDS011;1466;48.778;9.166;2022-09-03T12:28:41;15.43;;;9.60;;
2912;SDS011;1466;48.778;9.166;2022-09-03T12:33:57;14.03;;;8.77;;
2912;SDS011;1466;48.778;9.166;2022-09-03T12:39:14;14.83;;;8.33;;
2912;SDS011;1466;48.778;9.166;2022-09-03T12:47:22;17.10;;;9.90;;
2912;SDS011;1466;48.778;9.166;2022-09-03T12:49:48;14.70;;;8.53;;
2912;SDS011;1466;48.778;9.166;2022-09-03T12:54:52;25.90;;;10.30;;
2912;SDS011;1466;48.778;9.166;2022-09-03T12:57:48;30.23;;;9.73;;
2912;SDS011;1466;48.778;9.166;2022-09-03T13:00:17;16.60;;;8.10;;
2912;SDS011;1466;48.778;9.166;2022-09-03T13:02:55;20.53;;;7.80;;
2912;SDS011;1466;48.778;9.166;2022-09-03T13:05:30;17.63;;;7.07;;
2912;SDS011;1466;48.778;9.166;2022-09-03T13:08:07;15.57;;;7.60;;
2912;SDS011;1466;48.778;9.166;2022-09-03T13:10:38;15.80;;;7.53;;
2912;SDS011;1466;48.778;9.166;2022-09-03T13:26:57;15.83;;;7.67;;
2912;SDS011;1466;48.778;9.166;2022-09-03T13:32:24;17.50;;;8.80;;
2912;SDS011;1466;48.778;9.166;2022-09-03T13:55:15;13.23;;;6.23;;
2912;SDS011;1466;48.778;9.166;2022-09-03T13:57:49;13.30;;;7.00;;
2912;SDS011;1466;48.778;9.166;2022-09-03T14:09:03;11.07;;;7.10;;
2912;SDS011;1466;48.778;9.166;2022-09-03T14:11:58;10.40;;;5.70;;
2912;SDS011;1466;48.778;9.166;2022-09-03T14:14:40;10.40;;;5.23;;
2912;SDS011;1466;48.778;9.166;2022-09-03T14:22:41;12.83;;;7.10;;
2912;SDS011;1466;48.778;9.166;2022-09-03T14:25:26;19.13;;;8.30;;
2912;SDS011;1466;48.778;9.166;2022-09-03T14:28:11;20.30;;;8.73;;
2912;SDS011;1466;48.778;9.166;2022-09-03T14:37:13;9.70;;;6.30;;
2912;SDS011;1466;48.778;9.166;2022-09-03T14:39:33;18.37;;;7.13;;
2912;SDS011;1466;48.778;9.166;2022-09-03T14:42:14;28.57;;;9.30;;
2912;SDS011;1466;48.778;9.166;2022-09-03T14:44:50;18.87;;;7.77;;
2912;SDS011;1466;48.778;9.166;2022-09-03T14:47:45;12.97;;;7.03;;
2912;SDS011;1466;48.778;9.166;2022-09-03T14:50:27;17.83;;;7.83;;
2912;SDS011;1466;48.778;9.166;2022-09-03T14:53:06;30.17;;;9.47;;
2912;SDS011;1466;48.778;9.166;2022-09-03T15:01:09;10.40;;;5.27;;
2912;SDS011;1466;48.778;9.166;2022-09-03T15:11:46;10.47;;;6.33;;
2912;SDS011;1466;48.778;9.166;2022-09-03T15:20:02;12.03;;;6.93;;
2912;SDS011;1466;48.778;9.166;2022-09-03T15:37:36;14.03;;;7.67;;
2912;SDS011;1466;48.778;9.166;2022-09-03T15:42:39;14.27;;;7.43;;
2912;SDS011;1466;48.778;9.166;2022-09-03T15:45:13;17.90;;;8.53;;
2912;SDS011;1466;48.778;9.166;2022-09-03T15:50:14;9.93;;;6.83;;
2912;SDS011;1466;48.778;9.166;2022-09-03T15:57:54;15.47;;;6.80;;
2912;SDS011;1466;48.778;9.166;2022-09-03T16:00:38;18.23;;;6.90;;
2912;SDS011;1466;48.778;9.166;2022-09-03T16:06:04;11.17;;;7.57;;
2912;SDS011;1466;48.778;9.166;2022-09-03T16:08:53;14.20;;;7.97;;
2912;SDS011;1466;48.778;9.166;2022-09-03T16:14:21;17.03;;;8.37;;
2912;SDS011;1466;48.778;9.166;2022-09-03T16:19:53;15.20;;;7.70;;
2912;SDS011;1466;48.778;9.166;2022-09-03T16:22:31;12.77;;;7.13;;
2912;SDS011;1466;48.778;9.166;2022-09-03T16:25:13;15.07;;;8.20;;
2912;SDS011;1466;48.778;9.166;2022-09-03T16:28:18;13.30;;;8.03;;
2912;SDS011;1466;48.778;9.166;2022-09-03T16:42:17;16.73;;;8.93;;
2912;SDS011;1466;48.778;9.166;2022-09-03T16:52:59;15.63;;;7.40;;
2912;SDS011;1466;48.778;9.166;2022-09-03T17:01:04;15.17;;;7.57;;
2912;SDS011;1466;48.778;9.166;2022-09-03T17:03:41;22.97;;;8.90;;
2912;SDS011;1466;48.778;9.166;2022-09-03T17:09:33;21.50;;;7.40;;
2912;SDS011;1466;48.778;9.166;2022-09-03T17:15:01;16.50;;;7.70;;
2912;SDS011;1466;48.778;9.166;2022-09-03T17:17:56;18.90;;;8.30;;
2912;SDS011;1466;48.778;9.166;2022-09-03T17:31:58;17.93;;;8.70;;
2912;SDS011;1466;48.778;9.166;2022-09-03T17:50:54;17.03;;;9.60;;
2912;SDS011;1466;48.778;9.166;2022-09-03T17:53:35;28.47;;;9.90;;
2912;SDS011;1466;48.778;9.166;2022-09-03T17:56:19;19.33;;;11.23;;
2912;SDS011;1466;48.778;9.166;2022-09-03T17:58:48;22.13;;;9.47;;
2912;SDS011;1466;48.778;9.166;2022-09-03T18:01:20;17.70;;;9.47;;
2912;SDS011;1466;48.778;9.166;2022-09-03T18:09:32;21.33;;;8.67;;
2912;SDS011;1466;48.778;9.166;2022-09-03T18:12:28;14.63;;;8.00;;
2912;SDS011;1466;48.778;9.166;2022-09-03T18:15:08;15.63;;;7.33;;
2912;SDS011;1466;48.778;9.166;2022-09-03T18:17:42;14.20;;;7.40;;
2912;SDS011;1466;48.778;9.166;2022-09-03T18:20:10;25.67;;;9.97;;
2912;SDS011;1466;48.778;9.166;2022-09-03T18:26:06;14.57;;;8.20;;
2912;SDS011;1466;48.778;9.166;2022-09-03T18:29:06;21.07;;;9.37;;
2912;SDS011;1466;48.778;9.166;2022-09-03T18:31:59;23.70;;;10.13;;
2912;SDS011;1466;48.778;9.166;2022-09-03T18:34:44;17.30;;;8.03;;
2912;SDS011;1466;48.778;9.166;2022-09-03T18:37:30;22.77;;;9.07;;
2912;SDS011;1466;48.778;9.166;2022-09-03T18:40:19;22.80;;;9.63;;
2912;SDS011;1466;48.778;9.166;2022-09-03T18:43:13;29.33;;;10.30;;
2912;SDS011;1466;48.778;9.166;2022-09-03T18:46:09;25.90;;;10.13;;
2912;SDS011;1466;48.778;9.166;2022-09-03T18:49:10;21.43;;;11.20;;
2912;SDS011;1466;48.778;9.166;2022-09-03T18:52:18;28.43;;;11.70;;
2912;SDS011;1466;48.778;9.166;2022-09-03T19:07:08;16.67;;;9.50;;
2912;SDS011;1466;48.778;9.166;2022-09-03T19:12:58;16.03;;;10.30;;
2912;SDS011;1466;48.778;9.166;2022-09-03T19:15:58;20.97;;;10.73;;
2912;SDS011;1466;48.778;9.166;2022-09-03T19:18:57;17.90;;;10.30;;
2912;SDS011;1466;48.778;9.166;2022-09-03T19:21:56;17.87;;;10.43;;
2912;SDS011;1466;48.778;9.166;2022-09-03T19:24:49;16.63;;;9.83;;
2912;SDS011;1466;48.778;9.166;2022-09-03T19:27:44;18.93;;;9.83;;
2912;SDS011;1466;48.778;9.166;2022-09-03T19:34:04;14.93;;;9.23;;
2912;SDS011;1466;48.778;9.166;2022-09-03T19:43:11;15.90;;;9.40;;
2912;SDS011;1466;48.778;9.166;2022-09-03T19:49:22;16.60;;;9.27;;
2912;SDS011;1466;48.778;9.166;2022-09-03T19:52:20;19.03;;;9.37;;
2912;SDS011;1466;48.778;9.166;2022-09-03T19:55:29;18.47;;;10.70;;
2912;SDS011;1466;48.778;9.166;2022-09-03T19:58:17;22.53;;;10.27;;
2912;SDS011;1466;48.778;9.166;2022-09-03T20:01:05;17.97;;;9.10;;
2912;SDS011;1466;48.778;9.166;2022-09-03T20:03:50;20.03;;;9.77;;
2912;SDS011;1466;48.778;9.166;2022-09-03T20:06:34;14.00;;;8.70;;
2912;SDS011;1466;48.778;9.166;2022-09-03T20:09:21;16.20;;;8.87;;
2912;SDS011;1466;48.778;9.166;2022-09-03T20:12:11;27.00;;;11.27;;
2912;SDS011;1466;48.778;9.166;2022-09-03T20:14:40;18.87;;;9.23;;
2912;SDS011;1466;48.778;9.166;2022-09-03T20:22:22;20.97;;;9.27;;
2912;SDS011;1466;48.778;9.166;2022-09-03T20:27:57;23.87;;;9.97;;
2912;SDS011;1466;48.778;9.166;2022-09-03T20:33:34;23.30;;;9.97;;
2912;SDS011;1466;48.778;9.166;2022-09-03T20:36:23;20.60;;;9.40;;
2912;SDS011;1466;48.778;9.166;2022-09-03T20:39:17;25.30;;;10.63;;
2912;SDS011;1466;48.778;9.166;2022-09-03T20:47:03;29.77;;;11.50;;
2912;SDS011;1466;48.778;9.166;2022-09-03T20:52:27;26.07;;;11.37;;
2912;SDS011;1466;48.778;9.166;2022-09-03T20:55:19;23.40;;;9.60;;
2912;SDS011;1466;48.778;9.166;2022-09-03T20:57:58;15.90;;;8.20;;
2912;SDS011;1466;48.778;9.166;2022-09-03T21:00:59;19.30;;;9.77;;
2912;SDS011;1466;48.778;9.166;2022-09-03T21:05:57;14.93;;;8.50;;
2912;SDS011;1466;48.778;9.166;2022-09-03T21:17:05;17.53;;;10.17;;
2912;SDS011;1466;48.778;9.166;2022-09-03T21:19:59;18.30;;;11.40;;
2912;SDS011;1466;48.778;9.166;2022-09-03T21:25:14;17.87;;;10.17;;
2912;SDS011;1466;48.778;9.166;2022-09-03T21:27:50;20.83;;;10.60;;
2912;SDS011;1466;48.778;9.166;2022-09-03T21:30:23;13.73;;;9.30;;
2912;SDS011;1466;48.778;9.166;2022-09-03T21:32:51;21.23;;;10.43;;
2912;SDS011;1466;48.778;9.166;2022-09-03T21:35:29;15.13;;;9.90;;
2912;SDS011;1466;48.778;9.166;2022-09-03T21:40:27;13.57;;;10.03;;
2912;SDS011;1466;48.778;9.166;2022-09-03T21:45:46;15.30;;;9.03;;
2912;SDS011;1466;48.778;9.166;2022-09-03T21:48:45;11.70;;;8.57;;
2912;SDS011;1466;48.778;9.166;2022-09-03T21:51:22;10.93;;;8.40;;
2912;SDS011;1466;48.778;9.166;2022-09-03T21:54:01;14.83;;;9.17;;
2912;SDS011;1466;48.778;9.166;2022-09-03T21:56:43;24.57;;;10.03;;
2912;SDS011;1466;48.778;9.166;2022-09-03T22:05:02;16.27;;;9.13;;
2912;SDS011;1466;48.778;9.166;2022-09-03T22:15:53;15.03;;;8.03;;
2912;SDS011;1466;48.778;9.166;2022-09-03T22:18:28;10.37;;;7.90;;
2912;SDS011;1466;48.778;9.166;2022-09-03T22:21:01;11.80;;;7.93;;